sensor_id;sensor_type;location;lat;lon;timestamp;pressure;altitude;pressure_sealevel;temperature;humidity
7200;BME280;3641;49.082;8.200;2022-07-23T00:01:02;100182.16;;;23.69;61.69
7200;BME280;3641;49.082;8.200;2022-07-23T00:03:28;100184.38;;;23.72;61.23
7200;BME280;3641;49.082;8.200;2022-07-23T00:05:55;100196.28;;;23.21;65.66
7200;BME280;3641;49.082;8.200;2022-07-23T00:08:21;100189.84;;;23.26;64.98
7200;BME280;3641;49.082;8.200;2022-07-23T00:10:49;100199.28;;;23.15;65.44
7200;BME280;3641;49.082;8.200;2022-07-23T00:13:15;100197.38;;;23.20;64.36
7200;BME280;3641;49.082;8.200;2022-07-23T00:15:42;100198.84;;;23.49;61.71
7200;BME280;3641;49.082;8.200;2022-07-23T00:18:08;100205.03;;;23.66;60.52
7200;BME280;3641;49.082;8.200;2022-07-23T00:20:35;100202.22;;;23.71;62.01
7200;BME280;3641;49.082;8.200;2022-07-23T00:23:01;100211.69;;;23.65;59.75
7200;BME280;3641;49.082;8.200;2022-07-23T00:25:28;100220.81;;;23.30;62.76
7200;BME280;3641;49.082;8.200;2022-07-23T00:27:56;100220.94;;;23.02;63.71
7200;BME280;3641;49.082;8.200;2022-07-23T00:30:22;100221.56;;;23.15;61.44
7200;BME280;3641;49.082;8.200;2022-07-23T00:32:50;100226.53;;;23.02;63.65
7200;BME280;3641;49.082;8.200;2022-07-23T00:35:19;100224.44;;;23.40;62.01
7200;BME280;3641;49.082;8.200;2022-07-23T00:37:47;100222.50;;;23.41;60.24
7200;BME280;3641;49.082;8.200;2022-07-23T00:40:14;100209.69;;;23.35;61.82
7200;BME280;3641;49.082;8.200;2022-07-23T00:42:41;100200.72;;;23.23;61.03
7200;BME280;3641;49.082;8.200;2022-07-23T00:45:09;100193.84;;;23.61;58.91
7200;BME280;3641;49.082;8.200;2022-07-23T00:47:36;100206.13;;;23.60;59.25
7200;BME280;3641;49.082;8.200;2022-07-23T00:50:03;100200.50;;;23.55;59.17
7200;BME280;3641;49.082;8.200;2022-07-23T00:52:31;100208.63;;;23.77;57.99
7200;BME280;3641;49.082;8.200;2022-07-23T00:54:58;100210.22;;;23.32;61.95
7200;BME280;3641;49.082;8.200;2022-07-23T00:57:25;100212.75;;;23.44;59.45
7200;BME280;3641;49.082;8.200;2022-07-23T00:59:51;100202.19;;;23.61;58.45
7200;BME280;3641;49.082;8.200;2022-07-23T01:02:19;100201.91;;;23.52;59.99
7200;BME280;3641;49.082;8.200;2022-07-23T01:04:46;100197.19;;;23.58;60.21
7200;BME280;3641;49.082;8.200;2022-07-23T01:07:12;100192.47;;;23.53;60.22
7200;BME280;3641;49.082;8.200;2022-07-23T01:09:40;100200.56;;;23.60;59.63
7200;BME280;3641;49.082;8.200;2022-07-23T01:12:07;100222.97;;;23.12;63.32
7200;BME280;3641;49.082;8.200;2022-07-23T01:14:34;100228.31;;;23.29;62.97
7200;BME280;3641;49.082;8.200;2022-07-23T01:17:00;100218.06;;;23.45;62.49
7200;BME280;3641;49.082;8.200;2022-07-23T01:19:28;100209.13;;;22.80;64.04
7200;BME280;3641;49.082;8.200;2022-07-23T01:21:57;100199.88;;;23.22;60.82
7200;BME280;3641;49.082;8.200;2022-07-23T01:24:25;100188.44;;;23.13;60.84
7200;BME280;3641;49.082;8.200;2022-07-23T01:26:52;100189.06;;;23.36;60.26
7200;BME280;3641;49.082;8.200;2022-07-23T01:29:19;100177.09;;;23.40;59.70
7200;BME280;3641;49.082;8.200;2022-07-23T01:31:47;100171.00;;;23.49;60.29
7200;BME280;3641;49.082;8.200;2022-07-23T01:34:13;100162.31;;;23.35;60.51
7200;BME280;3641;49.082;8.200;2022-07-23T01:36:40;100159.53;;;23.40;60.14
7200;BME280;3641;49.082;8.200;2022-07-23T01:39:07;100159.00;;;23.38;60.34
7200;BME280;3641;49.082;8.200;2022-07-23T01:41:35;100164.31;;;22.76;65.93
7200;BME280;3641;49.082;8.200;2022-07-23T01:44:01;100177.38;;;22.28;67.01
7200;BME280;3641;49.082;8.200;2022-07-23T01:46:28;100184.34;;;21.98;68.67
7200;BME280;3641;49.082;8.200;2022-07-23T01:48:54;100189.38;;;22.01;68.57
7200;BME280;3641;49.082;8.200;2022-07-23T01:51:21;100190.56;;;22.10;65.55
7200;BME280;3641;49.082;8.200;2022-07-23T01:53:47;100188.81;;;21.67;68.52
7200;BME280;3641;49.082;8.200;2022-07-23T01:56:14;100190.50;;;21.46;69.23
7200;BME280;3641;49.082;8.200;2022-07-23T01:58:42;100192.22;;;21.74;65.45
7200;BME280;3641;49.082;8.200;2022-07-23T02:01:08;100193.84;;;22.02;64.75
7200;BME280;3641;49.082;8.200;2022-07-23T02:03:35;100205.03;;;22.12;63.72
7200;BME280;3641;49.082;8.200;2022-07-23T02:06:01;100201.28;;;21.97;66.43
7200;BME280;3641;49.082;8.200;2022-07-23T02:08:28;100207.03;;;22.17;62.91
7200;BME280;3641;49.082;8.200;2022-07-23T02:10:54;100207.88;;;22.50;61.27
7200;BME280;3641;49.082;8.200;2022-07-23T02:13:21;100196.38;;;22.41;62.73
7200;BME280;3641;49.082;8.200;2022-07-23T02:15:49;100196.47;;;22.19;64.18
7200;BME280;3641;49.082;8.200;2022-07-23T02:18:15;100193.81;;;21.70;64.47
7200;BME280;3641;49.082;8.200;2022-07-23T02:20:42;100190.16;;;22.29;61.57
7200;BME280;3641;49.082;8.200;2022-07-23T02:23:09;100181.84;;;22.29;61.80
7200;BME280;3641;49.082;8.200;2022-07-23T02:25:36;100186.97;;;22.10;62.46
7200;BME280;3641;49.082;8.200;2022-07-23T02:28:03;100190.09;;;22.24;61.82
7200;BME280;3641;49.082;8.200;2022-07-23T02:30:29;100199.50;;;22.45;62.01
7200;BME280;3641;49.082;8.200;2022-07-23T02:32:57;100202.84;;;22.52;60.85
7200;BME280;3641;49.082;8.200;2022-07-23T02:35:24;100204.44;;;22.38;61.75
7200;BME280;3641;49.082;8.200;2022-07-23T02:37:50;100215.59;;;22.10;65.68
7200;BME280;3641;49.082;8.200;2022-07-23T02:40:17;100222.38;;;22.25;62.42
7200;BME280;3641;49.082;8.200;2022-07-23T02:42:44;100227.50;;;21.73;64.75
7200;BME280;3641;49.082;8.200;2022-07-23T02:45:11;100223.56;;;22.02;64.45
7200;BME280;3641;49.082;8.200;2022-07-23T02:47:37;100223.28;;;21.71;66.64
7200;BME280;3641;49.082;8.200;2022-07-23T02:50:06;100228.88;;;22.03;63.20
7200;BME280;3641;49.082;8.200;2022-07-23T02:52:33;100215.38;;;22.17;64.58
7200;BME280;3641;49.082;8.200;2022-07-23T02:55:00;100230.47;;;21.94;63.79
7200;BME280;3641;49.082;8.200;2022-07-23T02:57:26;100236.06;;;21.99;63.18
7200;BME280;3641;49.082;8.200;2022-07-23T02:59:53;100255.38;;;22.16;62.15
7200;BME280;3641;49.082;8.200;2022-07-23T03:02:19;100253.75;;;21.88;63.24
7200;BME280;3641;49.082;8.200;2022-07-23T03:04:46;100259.28;;;21.83;65.03
7200;BME280;3641;49.082;8.200;2022-07-23T03:07:14;100257.38;;;21.88;65.00
7200;BME280;3641;49.082;8.200;2022-07-23T03:09:40;100258.13;;;22.11;62.00
7200;BME280;3641;49.082;8.200;2022-07-23T03:12:07;100257.25;;;22.05;62.16
7200;BME280;3641;49.082;8.200;2022-07-23T03:14:34;100254.47;;;21.29;66.81
7200;BME280;3641;49.082;8.200;2022-07-23T03:17:00;100245.72;;;21.91;62.77
7200;BME280;3641;49.082;8.200;2022-07-23T03:19:27;100249.25;;;22.14;61.58
7200;BME280;3641;49.082;8.200;2022-07-23T03:21:53;100262.75;;;21.73;66.59
7200;BME280;3641;49.082;8.200;2022-07-23T03:24:21;100258.28;;;21.45;67.27
7200;BME280;3641;49.082;8.200;2022-07-23T03:26:48;100257.00;;;21.52;64.45
7200;BME280;3641;49.082;8.200;2022-07-23T03:29:15;100262.06;;;21.83;63.62
7200;BME280;3641;49.082;8.200;2022-07-23T03:31:42;100255.75;;;21.92;63.03
7200;BME280;3641;49.082;8.200;2022-07-23T03:34:09;100253.63;;;22.05;62.14
7200;BME280;3641;49.082;8.200;2022-07-23T03:36:35;100250.84;;;22.05;62.01
7200;BME280;3641;49.082;8.200;2022-07-23T03:39:02;100256.59;;;21.93;63.08
7200;BME280;3641;49.082;8.200;2022-07-23T03:41:30;100247.69;;;21.91;63.03
7200;BME280;3641;49.082;8.200;2022-07-23T03:43:56;100260.72;;;21.41;65.37
7200;BME280;3641;49.082;8.200;2022-07-23T03:46:23;100268.75;;;21.87;62.97
7200;BME280;3641;49.082;8.200;2022-07-23T03:48:49;100305.94;;;21.14;67.38
7200;BME280;3641;49.082;8.200;2022-07-23T03:51:16;100310.44;;;21.42;64.63
7200;BME280;3641;49.082;8.200;2022-07-23T03:53:42;100293.75;;;21.87;62.51
7200;BME280;3641;49.082;8.200;2022-07-23T03:56:09;100274.47;;;21.75;64.75
7200;BME280;3641;49.082;8.200;2022-07-23T03:58:37;100277.53;;;21.29;67.33
7200;BME280;3641;49.082;8.200;2022-07-23T04:01:03;100293.41;;;21.34;65.20
7200;BME280;3641;49.082;8.200;2022-07-23T04:03:29;100309.19;;;21.50;66.53
7200;BME280;3641;49.082;8.200;2022-07-23T04:05:56;100308.84;;;21.47;66.87
7200;BME280;3641;49.082;8.200;2022-07-23T04:08:22;100303.34;;;21.74;63.06
7200;BME280;3641;49.082;8.200;2022-07-23T04:10:50;100296.53;;;21.87;62.84
7200;BME280;3641;49.082;8.200;2022-07-23T04:13:17;100300.88;;;21.11;66.04
7200;BME280;3641;49.082;8.200;2022-07-23T04:15:45;100302.00;;;21.32;64.33
7200;BME280;3641;49.082;8.200;2022-07-23T04:18:11;100298.06;;;21.50;64.64
7200;BME280;3641;49.082;8.200;2022-07-23T04:20:38;100295.25;;;21.28;64.48
7200;BME280;3641;49.082;8.200;2022-07-23T04:23:04;100294.84;;;21.58;63.04
7200;BME280;3641;49.082;8.200;2022-07-23T04:25:31;100301.72;;;21.12;64.73
7200;BME280;3641;49.082;8.200;2022-07-23T04:27:57;100299.59;;;21.63;62.24
7200;BME280;3641;49.082;8.200;2022-07-23T04:30:24;100300.06;;;21.77;61.69
7200;BME280;3641;49.082;8.200;2022-07-23T04:32:52;100306.53;;;21.61;62.52
7200;BME280;3641;49.082;8.200;2022-07-23T04:35:18;100310.25;;;21.71;61.88
7200;BME280;3641;49.082;8.200;2022-07-23T04:37:45;100310.06;;;21.78;62.84
7200;BME280;3641;49.082;8.200;2022-07-23T04:40:12;100314.22;;;21.75;64.07
7200;BME280;3641;49.082;8.200;2022-07-23T04:42:39;100320.94;;;21.80;62.84
7200;BME280;3641;49.082;8.200;2022-07-23T04:45:06;100323.72;;;21.80;62.00
7200;BME280;3641;49.082;8.200;2022-07-23T04:47:33;100355.91;;;21.14;66.46
7200;BME280;3641;49.082;8.200;2022-07-23T04:50:01;100355.03;;;21.14;66.99
7200;BME280;3641;49.082;8.200;2022-07-23T04:52:27;100356.59;;;21.27;64.46
7200;BME280;3641;49.082;8.200;2022-07-23T04:54:54;100356.34;;;21.28;64.83
7200;BME280;3641;49.082;8.200;2022-07-23T04:57:20;100346.75;;;20.80;67.77
7200;BME280;3641;49.082;8.200;2022-07-23T04:59:46;100332.28;;;21.34;63.66
7200;BME280;3641;49.082;8.200;2022-07-23T05:02:13;100326.81;;;21.61;64.51
7200;BME280;3641;49.082;8.200;2022-07-23T05:04:39;100342.72;;;21.66;63.31
7200;BME280;3641;49.082;8.200;2022-07-23T05:07:07;100335.31;;;21.32;66.01
7200;BME280;3641;49.082;8.200;2022-07-23T05:09:34;100325.06;;;21.55;65.22
7200;BME280;3641;49.082;8.200;2022-07-23T05:12:01;100305.22;;;21.68;64.43
7200;BME280;3641;49.082;8.200;2022-07-23T05:14:27;100318.16;;;21.80;63.64
7200;BME280;3641;49.082;8.200;2022-07-23T05:16:54;100328.41;;;21.79;64.27
7200;BME280;3641;49.082;8.200;2022-07-23T05:19:20;100327.88;;;21.82;66.38
7200;BME280;3641;49.082;8.200;2022-07-23T05:21:47;100328.78;;;21.61;67.44
7200;BME280;3641;49.082;8.200;2022-07-23T05:24:15;100326.53;;;21.40;69.48
7200;BME280;3641;49.082;8.200;2022-07-23T05:26:41;100335.72;;;21.02;71.18
7200;BME280;3641;49.082;8.200;2022-07-23T05:29:08;100335.16;;;21.00;69.15
7200;BME280;3641;49.082;8.200;2022-07-23T05:31:34;100339.31;;;21.41;67.87
7200;BME280;3641;49.082;8.200;2022-07-23T05:34:01;100355.59;;;20.94;70.56
7200;BME280;3641;49.082;8.200;2022-07-23T05:36:27;100371.19;;;21.17;67.06
7200;BME280;3641;49.082;8.200;2022-07-23T05:38:54;100364.00;;;20.99;69.69
7200;BME280;3641;49.082;8.200;2022-07-23T05:41:22;100339.53;;;21.35;66.03
7200;BME280;3641;49.082;8.200;2022-07-23T05:43:49;100321.56;;;21.65;65.08
7200;BME280;3641;49.082;8.200;2022-07-23T05:46:16;100344.47;;;21.50;71.77
7200;BME280;3641;49.082;8.200;2022-07-23T05:48:42;100358.53;;;20.87;74.69
7200;BME280;3641;49.082;8.200;2022-07-23T05:51:11;100360.34;;;21.15;69.31
7200;BME280;3641;49.082;8.200;2022-07-23T05:53:37;100374.25;;;21.54;67.86
7200;BME280;3641;49.082;8.200;2022-07-23T05:56:04;100364.50;;;21.35;70.04
7200;BME280;3641;49.082;8.200;2022-07-23T05:58:32;100363.50;;;21.63;67.67
7200;BME280;3641;49.082;8.200;2022-07-23T06:00:59;100383.16;;;21.17;70.66
7200;BME280;3641;49.082;8.200;2022-07-23T06:03:25;100388.97;;;21.55;68.65
7200;BME280;3641;49.082;8.200;2022-07-23T06:05:52;100389.69;;;21.67;67.83
7200;BME280;3641;49.082;8.200;2022-07-23T06:08:18;100390.66;;;21.78;68.33
7200;BME280;3641;49.082;8.200;2022-07-23T06:10:45;100388.97;;;21.55;71.99
7200;BME280;3641;49.082;8.200;2022-07-23T06:13:11;100390.47;;;21.63;69.07
7200;BME280;3641;49.082;8.200;2022-07-23T06:15:39;100378.00;;;21.65;69.29
7200;BME280;3641;49.082;8.200;2022-07-23T06:18:06;100367.91;;;21.81;68.24
7200;BME280;3641;49.082;8.200;2022-07-23T06:20:32;100376.25;;;21.81;70.30
7200;BME280;3641;49.082;8.200;2022-07-23T06:22:59;100380.50;;;22.16;68.12
7200;BME280;3641;49.082;8.200;2022-07-23T06:25:26;100393.53;;;22.33;67.22
7200;BME280;3641;49.082;8.200;2022-07-23T06:27:52;100401.59;;;22.99;67.29
7200;BME280;3641;49.082;8.200;2022-07-23T06:30:19;100414.84;;;22.54;70.05
7200;BME280;3641;49.082;8.200;2022-07-23T06:32:48;100412.00;;;22.44;68.04
7200;BME280;3641;49.082;8.200;2022-07-23T06:35:15;100402.88;;;22.26;67.60
7200;BME280;3641;49.082;8.200;2022-07-23T06:37:41;100395.19;;;22.34;67.61
7200;BME280;3641;49.082;8.200;2022-07-23T06:40:09;100405.47;;;22.11;69.11
7200;BME280;3641;49.082;8.200;2022-07-23T06:42:36;100409.44;;;21.93;68.90
7200;BME280;3641;49.082;8.200;2022-07-23T06:45:05;100413.81;;;22.11;68.31
7200;BME280;3641;49.082;8.200;2022-07-23T06:47:31;100406.34;;;22.11;68.10
7200;BME280;3641;49.082;8.200;2022-07-23T06:49:59;100415.78;;;21.66;75.00
7200;BME280;3641;49.082;8.200;2022-07-23T06:52:26;100424.69;;;21.90;70.08
7200;BME280;3641;49.082;8.200;2022-07-23T06:54:52;100433.91;;;21.91;74.00
7200;BME280;3641;49.082;8.200;2022-07-23T06:57:19;100429.97;;;22.14;70.86
7200;BME280;3641;49.082;8.200;2022-07-23T06:59:45;100424.06;;;21.83;71.96
7200;BME280;3641;49.082;8.200;2022-07-23T07:02:12;100415.94;;;21.76;71.93
7200;BME280;3641;49.082;8.200;2022-07-23T07:04:38;100421.59;;;21.65;74.11
7200;BME280;3641;49.082;8.200;2022-07-23T07:07:06;100422.06;;;21.79;73.09
7200;BME280;3641;49.082;8.200;2022-07-23T07:09:33;100432.38;;;21.44;73.91
7200;BME280;3641;49.082;8.200;2022-07-23T07:11:59;100436.94;;;21.89;70.32
7200;BME280;3641;49.082;8.200;2022-07-23T07:14:26;100427.09;;;22.04;70.75
7200;BME280;3641;49.082;8.200;2022-07-23T07:16:53;100432.25;;;21.95;69.08
7200;BME280;3641;49.082;8.200;2022-07-23T07:19:19;100436.41;;;21.92;70.51
7200;BME280;3641;49.082;8.200;2022-07-23T07:21:46;100441.50;;;22.01;68.86
7200;BME280;3641;49.082;8.200;2022-07-23T07:24:14;100428.84;;;22.10;68.12
7200;BME280;3641;49.082;8.200;2022-07-23T07:26:40;100432.28;;;22.22;68.35
7200;BME280;3641;49.082;8.200;2022-07-23T07:29:07;100429.84;;;22.26;68.21
7200;BME280;3641;49.082;8.200;2022-07-23T07:31:33;100443.88;;;22.14;69.38
7200;BME280;3641;49.082;8.200;2022-07-23T07:34:00;100437.00;;;21.94;69.81
7200;BME280;3641;49.082;8.200;2022-07-23T07:36:26;100446.94;;;21.90;71.45
7200;BME280;3641;49.082;8.200;2022-07-23T07:38:53;100439.69;;;22.34;67.36
7200;BME280;3641;49.082;8.200;2022-07-23T07:41:20;100448.19;;;22.49;66.85
7200;BME280;3641;49.082;8.200;2022-07-23T07:43:49;100451.81;;;22.49;69.54
7200;BME280;3641;49.082;8.200;2022-07-23T07:46:15;100451.41;;;22.13;68.93
7200;BME280;3641;49.082;8.200;2022-07-23T07:48:42;100454.19;;;22.36;68.72
7200;BME280;3641;49.082;8.200;2022-07-23T07:51:09;100447.72;;;22.57;67.57
7200;BME280;3641;49.082;8.200;2022-07-23T07:53:35;100444.69;;;22.59;68.02
7200;BME280;3641;49.082;8.200;2022-07-23T07:56:02;100452.19;;;22.58;66.82
7200;BME280;3641;49.082;8.200;2022-07-23T07:58:29;100463.09;;;22.38;67.27
7200;BME280;3641;49.082;8.200;2022-07-23T08:00:56;100468.19;;;22.73;66.07
7200;BME280;3641;49.082;8.200;2022-07-23T08:03:22;100468.16;;;22.68;65.75
7200;BME280;3641;49.082;8.200;2022-07-23T08:05:50;100465.84;;;22.92;64.94
7200;BME280;3641;49.082;8.200;2022-07-23T08:08:16;100462.81;;;22.94;64.76
7200;BME280;3641;49.082;8.200;2022-07-23T08:10:43;100470.47;;;22.81;65.39
7200;BME280;3641;49.082;8.200;2022-07-23T08:13:13;100471.69;;;22.91;66.48
7200;BME280;3641;49.082;8.200;2022-07-23T08:15:41;100471.66;;;23.18;64.56
7200;BME280;3641;49.082;8.200;2022-07-23T08:18:08;100465.66;;;23.31;64.27
7200;BME280;3641;49.082;8.200;2022-07-23T08:20:35;100471.09;;;23.16;65.06
7200;BME280;3641;49.082;8.200;2022-07-23T08:23:03;100470.34;;;23.26;65.19
7200;BME280;3641;49.082;8.200;2022-07-23T08:25:32;100469.38;;;23.47;63.78
7200;BME280;3641;49.082;8.200;2022-07-23T08:28:03;100479.91;;;23.40;64.59
7200;BME280;3641;49.082;8.200;2022-07-23T08:30:32;100467.97;;;23.45;64.34
7200;BME280;3641;49.082;8.200;2022-07-23T08:33:01;100465.22;;;23.55;63.08
7200;BME280;3641;49.082;8.200;2022-07-23T08:35:29;100471.78;;;23.33;63.32
7200;BME280;3641;49.082;8.200;2022-07-23T08:37:57;100473.78;;;23.38;63.44
7200;BME280;3641;49.082;8.200;2022-07-23T08:40:26;100481.94;;;23.55;63.75
7200;BME280;3641;49.082;8.200;2022-07-23T08:42:52;100481.47;;;23.63;61.92
7200;BME280;3641;49.082;8.200;2022-07-23T08:45:21;100483.47;;;23.68;61.94
7200;BME280;3641;49.082;8.200;2022-07-23T08:47:49;100481.53;;;23.73;62.84
7200;BME280;3641;49.082;8.200;2022-07-23T08:50:18;100474.84;;;23.74;63.19
7200;BME280;3641;49.082;8.200;2022-07-23T08:52:44;100470.63;;;23.72;62.79
7200;BME280;3641;49.082;8.200;2022-07-23T08:55:11;100485.47;;;23.78;63.62
7200;BME280;3641;49.082;8.200;2022-07-23T08:57:38;100475.28;;;23.99;62.52
7200;BME280;3641;49.082;8.200;2022-07-23T09:00:06;100478.06;;;23.99;62.46
7200;BME280;3641;49.082;8.200;2022-07-23T09:02:38;100474.31;;;23.83;61.92
7200;BME280;3641;49.082;8.200;2022-07-23T09:05:05;100471.34;;;23.94;62.70
7200;BME280;3641;49.082;8.200;2022-07-23T09:07:33;100483.19;;;23.69;61.70
7200;BME280;3641;49.082;8.200;2022-07-23T09:10:07;100468.53;;;23.89;62.33
7200;BME280;3641;49.082;8.200;2022-07-23T09:12:33;100480.63;;;24.10;61.55
7200;BME280;3641;49.082;8.200;2022-07-23T09:15:04;100476.75;;;24.22;61.13
7200;BME280;3641;49.082;8.200;2022-07-23T09:17:38;100472.84;;;24.13;59.82
7200;BME280;3641;49.082;8.200;2022-07-23T09:20:09;100467.16;;;23.92;61.09
7200;BME280;3641;49.082;8.200;2022-07-23T09:22:38;100465.63;;;24.27;61.25
7200;BME280;3641;49.082;8.200;2022-07-23T09:25:08;100467.34;;;24.43;62.19
7200;BME280;3641;49.082;8.200;2022-07-23T09:27:50;100465.72;;;24.68;61.66
7200;BME280;3641;49.082;8.200;2022-07-23T09:30:18;100472.72;;;24.71;61.46
7200;BME280;3641;49.082;8.200;2022-07-23T09:33:03;100467.16;;;24.81;61.40
7200;BME280;3641;49.082;8.200;2022-07-23T09:35:47;100468.53;;;24.94;60.88
7200;BME280;3641;49.082;8.200;2022-07-23T09:38:16;100464.66;;;24.90;60.37
7200;BME280;3641;49.082;8.200;2022-07-23T09:40:43;100466.59;;;25.05;59.86
7200;BME280;3641;49.082;8.200;2022-07-23T09:43:11;100455.72;;;25.08;61.00
7200;BME280;3641;49.082;8.200;2022-07-23T09:45:37;100462.16;;;25.04;59.57
7200;BME280;3641;49.082;8.200;2022-07-23T09:48:12;100454.31;;;25.11;59.98
7200;BME280;3641;49.082;8.200;2022-07-23T09:50:40;100458.78;;;25.17;57.43
7200;BME280;3641;49.082;8.200;2022-07-23T09:53:07;100461.28;;;25.24;59.35
7200;BME280;3641;49.082;8.200;2022-07-23T09:55:36;100469.13;;;25.32;58.12
7200;BME280;3641;49.082;8.200;2022-07-23T09:58:04;100464.66;;;25.41;59.59
7200;BME280;3641;49.082;8.200;2022-07-23T10:00:32;100463.81;;;25.46;59.95
7200;BME280;3641;49.082;8.200;2022-07-23T10:02:59;100464.06;;;25.65;59.06
7200;BME280;3641;49.082;8.200;2022-07-23T10:05:26;100463.78;;;25.51;58.65
7200;BME280;3641;49.082;8.200;2022-07-23T10:07:54;100458.75;;;25.48;59.17
7200;BME280;3641;49.082;8.200;2022-07-23T10:10:22;100465.72;;;25.66;57.22
7200;BME280;3641;49.082;8.200;2022-07-23T10:12:53;100472.94;;;25.87;56.81
7200;BME280;3641;49.082;8.200;2022-07-23T10:15:39;100467.63;;;25.86;57.03
7200;BME280;3641;49.082;8.200;2022-07-23T10:18:06;100472.06;;;25.92;56.69
7200;BME280;3641;49.082;8.200;2022-07-23T10:20:33;100468.16;;;25.93;56.58
7200;BME280;3641;49.082;8.200;2022-07-23T10:23:04;100465.06;;;26.05;56.67
7200;BME280;3641;49.082;8.200;2022-07-23T10:25:40;100468.69;;;26.05;56.73
7200;BME280;3641;49.082;8.200;2022-07-23T10:28:21;100475.66;;;26.13;56.38
7200;BME280;3641;49.082;8.200;2022-07-23T10:31:00;100470.97;;;26.53;54.90
7200;BME280;3641;49.082;8.200;2022-07-23T10:33:37;100460.28;;;26.60;55.37
7200;BME280;3641;49.082;8.200;2022-07-23T10:36:11;100464.75;;;26.67;56.65
7200;BME280;3641;49.082;8.200;2022-07-23T10:38:47;100463.94;;;26.56;54.27
7200;BME280;3641;49.082;8.200;2022-07-23T10:41:14;100458.59;;;26.59;55.63
7200;BME280;3641;49.082;8.200;2022-07-23T10:43:43;100463.81;;;26.81;53.39
7200;BME280;3641;49.082;8.200;2022-07-23T10:46:22;100463.41;;;26.98;52.87
7200;BME280;3641;49.082;8.200;2022-07-23T10:49:26;100458.84;;;27.08;53.60
7200;BME280;3641;49.082;8.200;2022-07-23T10:52:18;100458.91;;;26.97;53.53
7200;BME280;3641;49.082;8.200;2022-07-23T10:54:46;100462.19;;;27.10;55.86
7200;BME280;3641;49.082;8.200;2022-07-23T10:57:14;100456.25;;;27.16;51.54
7200;BME280;3641;49.082;8.200;2022-07-23T11:00:12;100449.16;;;27.24;52.46
7200;BME280;3641;49.082;8.200;2022-07-23T11:02:41;100462.34;;;27.24;51.46
7200;BME280;3641;49.082;8.200;2022-07-23T11:05:09;100453.66;;;27.25;50.26
7200;BME280;3641;49.082;8.200;2022-07-23T11:08:09;100456.13;;;27.32;51.63
7200;BME280;3641;49.082;8.200;2022-07-23T11:10:32;100458.06;;;27.36;52.42
7200;BME280;3641;49.082;8.200;2022-07-23T11:13:31;100465.94;;;27.59;51.47
7200;BME280;3641;49.082;8.200;2022-07-23T11:16:07;100456.22;;;27.51;50.38
7200;BME280;3641;49.082;8.200;2022-07-23T11:18:55;100459.19;;;27.84;49.86
7200;BME280;3641;49.082;8.200;2022-07-23T11:21:47;100459.78;;;27.27;52.45
7200;BME280;3641;49.082;8.200;2022-07-23T11:24:21;100452.91;;;27.14;50.13
7200;BME280;3641;49.082;8.200;2022-07-23T11:26:57;100454.78;;;27.24;50.97
7200;BME280;3641;49.082;8.200;2022-07-23T11:29:43;100457.25;;;27.31;51.67
7200;BME280;3641;49.082;8.200;2022-07-23T11:32:34;100447.19;;;27.25;53.01
7200;BME280;3641;49.082;8.200;2022-07-23T11:35:19;100457.78;;;27.33;53.60
7200;BME280;3641;49.082;8.200;2022-07-23T11:37:46;100456.25;;;27.46;51.52
7200;BME280;3641;49.082;8.200;2022-07-23T11:40:15;100445.13;;;27.65;50.03
7200;BME280;3641;49.082;8.200;2022-07-23T11:42:52;100450.56;;;27.80;49.69
7200;BME280;3641;49.082;8.200;2022-07-23T11:45:18;100442.31;;;27.89;50.66
7200;BME280;3641;49.082;8.200;2022-07-23T11:47:46;100441.56;;;28.07;48.99
7200;BME280;3641;49.082;8.200;2022-07-23T11:50:13;100438.44;;;28.09;49.45
7200;BME280;3641;49.082;8.200;2022-07-23T11:52:39;100438.53;;;28.04;49.24
7200;BME280;3641;49.082;8.200;2022-07-23T11:55:08;100427.63;;;27.49;52.41
7200;BME280;3641;49.082;8.200;2022-07-23T11:57:36;100431.91;;;27.41;54.14
7200;BME280;3641;49.082;8.200;2022-07-23T12:00:08;100437.00;;;27.63;53.42
7200;BME280;3641;49.082;8.200;2022-07-23T12:02:36;100427.31;;;27.75;51.71
7200;BME280;3641;49.082;8.200;2022-07-23T12:05:05;100422.22;;;27.82;50.30
7200;BME280;3641;49.082;8.200;2022-07-23T12:07:33;100427.31;;;27.75;52.66
7200;BME280;3641;49.082;8.200;2022-07-23T12:10:02;100424.72;;;27.59;50.28
7200;BME280;3641;49.082;8.200;2022-07-23T12:12:36;100420.00;;;27.54;53.02
7200;BME280;3641;49.082;8.200;2022-07-23T12:15:04;100419.13;;;27.59;51.74
7200;BME280;3641;49.082;8.200;2022-07-23T12:17:33;100420.97;;;27.69;50.11
7200;BME280;3641;49.082;8.200;2022-07-23T12:20:00;100419.94;;;27.60;48.53
7200;BME280;3641;49.082;8.200;2022-07-23T12:22:36;100424.13;;;27.86;48.77
7200;BME280;3641;49.082;8.200;2022-07-23T12:25:06;100424.88;;;28.16;46.76
7200;BME280;3641;49.082;8.200;2022-07-23T12:27:33;100411.50;;;28.08;46.51
7200;BME280;3641;49.082;8.200;2022-07-23T12:30:15;100417.72;;;27.81;48.36
7200;BME280;3641;49.082;8.200;2022-07-23T12:32:43;100416.06;;;27.80;47.79
7200;BME280;3641;49.082;8.200;2022-07-23T12:35:11;100416.97;;;27.75;46.71
7200;BME280;3641;49.082;8.200;2022-07-23T12:37:41;100417.84;;;27.46;50.24
7200;BME280;3641;49.082;8.200;2022-07-23T12:40:25;100408.28;;;27.47;46.96
7200;BME280;3641;49.082;8.200;2022-07-23T12:42:54;100420.66;;;27.70;47.58
7200;BME280;3641;49.082;8.200;2022-07-23T12:45:21;100415.59;;;27.97;48.17
7200;BME280;3641;49.082;8.200;2022-07-23T12:47:52;100407.97;;;28.21;46.80
7200;BME280;3641;49.082;8.200;2022-07-23T12:50:41;100415.09;;;28.14;45.61
7200;BME280;3641;49.082;8.200;2022-07-23T12:53:12;100416.78;;;28.15;43.67
7200;BME280;3641;49.082;8.200;2022-07-23T12:55:39;100413.13;;;28.33;47.09
7200;BME280;3641;49.082;8.200;2022-07-23T12:58:17;100403.06;;;28.32;44.03
7200;BME280;3641;49.082;8.200;2022-07-23T13:00:56;100404.38;;;28.54;43.66
7200;BME280;3641;49.082;8.200;2022-07-23T13:03:24;100412.59;;;28.50;43.65
7200;BME280;3641;49.082;8.200;2022-07-23T13:05:51;100411.69;;;28.55;44.34
7200;BME280;3641;49.082;8.200;2022-07-23T13:08:20;100408.00;;;28.59;44.89
7200;BME280;3641;49.082;8.200;2022-07-23T13:10:47;100404.19;;;28.31;44.46
7200;BME280;3641;49.082;8.200;2022-07-23T13:13:17;100410.00;;;28.35;43.22
7200;BME280;3641;49.082;8.200;2022-07-23T13:15:43;100416.81;;;28.09;44.63
7200;BME280;3641;49.082;8.200;2022-07-23T13:18:10;100402.94;;;27.99;45.76